Maersk Barry — OYJE2 — position and weather

sailwx.info

Track history (hours):
 
Tides and Currents Weather Stations Pressure Air Temp Water Temp Dewpoint Dewpoint Depression Visibility Wind Speed Wind Dir Waves Ship Positions

Maersk Barry

Last reported at 2015-Apr-18 20:33 UTC. Time now 2015-Apr-19 22:58 UTC.
Position N 41°27' E 029°26'.

Length 175 m; draft 9.5 m.

Type: Tanker. MMSI: 219127000.

Date/timePositionNaut miles runAvg speedWind from/ knotsBaromVisibWave heightAir tempDewpointWater temp
2015-Apr-18 20:33N 41°27' E 029°26'1312.5
2015-Apr-18 19:33N 41°18' E 029°14'2110.3
2015-Apr-18 17:32N 41°00' E 028°60'6 5.8
2015-Apr-18 16:27N 40°56' E 028°53'1 0.0
2015-Apr-17 06:26N 40°57' E 028°53'0 0.0
2015-Apr-17 05:26N 40°57' E 028°53'0 0.0
2015-Apr-17 04:08N 40°57' E 028°53'0 0.0
2015-Apr-17 02:14N 40°57' E 028°53'0 0.0
2015-Apr-16 21:08N 40°57' E 028°53'0 0.1
2015-Apr-16 20:32N 40°57' E 028°53'0 0.0
2015-Apr-16 18:20N 40°57' E 028°52'0 0.0
2015-Apr-16 16:20N 40°57' E 028°52'0 0.0
2015-Apr-16 11:20N 40°57' E 028°53'238 4.9
2015-Apr-14 10:28N 37°53' E 025°36'1212.7
2015-Apr-14 09:30N 37°42' E 025°42'1212.6
2015-Apr-14 08:33N 37°30' E 025°47'1211.9
2015-Apr-14 07:33N 37°23' E 025°59'1312.8
2015-Apr-14 06:33N 37°17' E 026°13'1312.7
2015-Apr-14 05:33N 37°10' E 026°26'1212.5
2015-Apr-14 04:33N 37°03' E 026°39'6911.4
2015-Apr-13 22:28N 36°01' E 027°18'1212.7
2015-Apr-13 21:33N 35°51' E 027°25'  
Track history (hours):
 
Tides and Currents Weather Stations Pressure Air Temp Water Temp Dewpoint Dewpoint Depression Visibility Wind Speed Wind Dir Waves Ship Positions

Maersk Barry

Last reported at 2015-Apr-18 20:33 UTC. Time now 2015-Apr-19 22:58 UTC.
Position N 41°27' E 029°26'.

Length 175 m; draft 9.5 m.

Type: Tanker. MMSI: 219127000.

Date/timePositionNaut miles runAvg speedWind from/ knotsBaromVisibWave heightAir tempDewpointWater temp
2015-Apr-18 20:33N 41°27' E 029°26'1312.5
2015-Apr-18 19:33N 41°18' E 029°14'2110.3
2015-Apr-18 17:32N 41°00' E 028°60'6 5.8
2015-Apr-18 16:27N 40°56' E 028°53'1 0.0
2015-Apr-17 06:26N 40°57' E 028°53'0 0.0
2015-Apr-17 05:26N 40°57' E 028°53'0 0.0
2015-Apr-17 04:08N 40°57' E 028°53'0 0.0
2015-Apr-17 02:14N 40°57' E 028°53'0 0.0
2015-Apr-16 21:08N 40°57' E 028°53'0 0.1
2015-Apr-16 20:32N 40°57' E 028°53'0 0.0
2015-Apr-16 18:20N 40°57' E 028°52'0 0.0
2015-Apr-16 16:20N 40°57' E 028°52'0 0.0
2015-Apr-16 11:20N 40°57' E 028°53'238 4.9
2015-Apr-14 10:28N 37°53' E 025°36'1212.7
2015-Apr-14 09:30N 37°42' E 025°42'1212.6
2015-Apr-14 08:33N 37°30' E 025°47'1211.9
2015-Apr-14 07:33N 37°23' E 025°59'1312.8
2015-Apr-14 06:33N 37°17' E 026°13'1312.7
2015-Apr-14 05:33N 37°10' E 026°26'1212.5
2015-Apr-14 04:33N 37°03' E 026°39'6911.4
2015-Apr-13 22:28N 36°01' E 027°18'1212.7
2015-Apr-13 21:33N 35°51' E 027°25'  

Dump ship's entire track history